Latest Observation

42 Stations

15 Minute Data | America/Los_Angeles
as of 5/5/26 3:54 PM PDT
Station Date Time Temp (°F) RH (%) Dew Pt (°F) Wind Spd (mph) Wind Dir (°) Wind Gust (mph) Latest Rain (In) Daily Rain (In) Daily Min Temp (°F) Daily Max Temp (°F) Daily Max Wind (mph)
Elk Mt. Farm 5/5/26 1545 70.8   12.6 - - - - - - - 47.3   0.1 73.1   13.7 -
Upper Lake 5/5/26 1545 71.5   13.9 55   26 54.5   2.5 4.1 WNW | 284 9.5   4.1 0.00 0.00 48.9   1.5 72.7   14.6 10.6   1.4
Scotts Valley 5/5/26 1545 69.2   10.2 60   15 54.8   3.8 3.7 SSW | 204 10.2   5.6 0.00 0.00 44.4   5.7 72.3   12.5 10.2   2.4
Scotts Valley-South (Bella Vista) 5/5/26 1545 69.0   9.9 52   14 50.7   3.0 4.0 SW | 216 8.3   2.1 0.00 0.00 45.5   4.3 70.8   11.1 10.3   1.2
Kelseyville 5/5/26 1545 69.8   12.1 56   25 53.3   1.2 6.2 SW | 221 12.7   3.3 0.00 0.00 47.8   2.8 70.5   12.3 12.7   2.2
Kelseyville Remote 5/5/26 1545 71.4   12.5 47   20 49.9   2.2 - - - 0.00 0.00 48.7   3.0 71.4   12.1 -
Kelseyville (Clark Drive) 5/5/26 1545 71.4   13.4 - - - - - 0.00 0.00 48.9   1.7 72.5   13.9 -
Kelsey Bench (Oaklea) 5/5/26 1545 68.8   12.9 52   25 50.7   1.9 5.4 W | 260 13.1   6.1 0.00 0.00 47.3   1.7 69.6   12.5 13.1   1.0
Smith Lane (Kelseyville-South) 5/5/26 1545 70.1   12.2 57   20 54.2   3.3 6.1 SSW | 210 11.6   2.2 0.00 0.00 47.4   3.3 70.8   12.0 12.1   0.6
Bell Hill-West 5/5/26 1545 68.4   11.3 65   24 56.2   2.3 5.8 WSW | 245 10.1   2.0 0.00 0.00 46.9   3.8 69.4   11.1 12.8   3.0
High Valley Ridgeline (Brassfield) 5/5/26 1545 65.9   13.8 57   36 50.4   0.1 8.5 SW | 232 13.0   0.6 0.00 0.00 46.1   1.0 67.3   14.7 19.6   6.1
Wight Way (Adobe Creek) 5/5/26 1500 70.3   14.4 52   29 51.7   1.5 2.8 NW | 311 9.8   3.9 0.00 0.00 46.3   4.0 71.4   10.3 11.0   1.2
Ridgeline Top (Brassfield) 5/5/26 1545 67.8   15.0 - - - - - - - 46.1   1.0 69.7   15.8 -
Ridgeline Low (Brassfield) 5/5/26 1545 66.7   12.8 - - - - - - - 48.0   0.9 67.5   12.9 -
Long Valley (Shannon) 5/5/26 1345 66.4   9.5 65   27 54.4   0.2 3.1 E | 100 7.4   4.2 0.00 0.00 48.9   1.9 68.1   8.5 11.0   2.7
High Valley Winery 5/5/26 1545 67.0   11.9 56   27 50.8   0.6 7.3 SW | 231 12.1   2.0 0.00 0.00 48.3   4.0 67.4   9.5 16.0   1.9
Round Mtn Rd. 5/5/26 1430 64.1   9.5 - - - - - - - 46.9   1.4 64.8   7.6 -
Circle O 5/5/26 1545 67.2   12.9 - - - - - - - 46.2   0.5 68.0   11.0 -
Robertsbridge Vineyards 5/5/26 1545 68.0   12.2 55   25 51.5   1.6 - - - - - 47.0   1.8 70.9   11.3 -
Urgency Vineyard 5/5/26 1545 70.4   15.2 53   25 52.3   3.8 3.8 NNW | 345 11.6   5.0 0.00 0.00 48.1   0.8 70.4   10.4 11.6   0.4
Red Hills (Beckstoffer) 5/5/26 1545 68.2   13.3 58   26 52.8   2.6 - - - 0.00 0.00 48.3   0.6 68.6   8.7 -
Winters (Shannon) 5/5/26 1545 66.0   12.5 61   21 52.0   3.9 2.5 ENE | 75 7.6   0.5 0.00 0.00 47.0   1.3 66.0   8.7 14.8   2.0
Secret Pond (Shannon) 5/5/26 1545 66.6   14.1 59   24 51.6   4.3 2.0 NNE | 14 6.1   1.0 0.00 0.00 46.4   1.1 66.6   7.9 16.1   3.5
Rolling Knolls (Shannon) 5/5/26 1545 66.7   11.4 59   21 52.1   2.9 2.1 SE | 142 7.5   3.3 0.00 0.00 49.3   0.8 68.8   7.8 12.7   0.4
Lower Lake 5/5/26 1545 66.5   11.0 62   21 53.2   2.6 4.3 E | 99 9.9   2.7 0.00 0.00 49.7   0.7 67.8   6.9 19.0   3.7
Adamson Ranch 5/5/26 1545 69.8   13.6 60   29 55.6   2.4 2.2 S | 169 7.0   4.6 0.00 0.00 50.5   0.0 70.0   8.5 10.5   0.7
Middletown (Diamond D) 5/5/26 1545 64.2   9.2 69   20 54.0   2.1 5.7 S | 170 13.9   4.2 0.00 0.01 51.4   3.4 65.8   1.2 13.9   3.7
Middletown-West (Domaine Helena) 5/5/26 1545 63.4   9.7 75   14 55.5   4.7 10.9 SW | 214 15.5   1.9 0.00 0.01 50.0   2.7 65.1   0.1 15.5   1.9
Middletown-South 5/5/26 1545 64.1   10.0 66   24 52.5   1.3 6.6 WSW | 239 13.7   7.7 0.00 0.00 50.3   3.1 65.1   1.2 17.6   5.4
Jim Davis (Langtry) 5/5/26 1545 64.8   9.6 70   20 54.8   2.5 4.5 ESE | 117 9.1   3.6 0.00 0.05 51.0   3.1 67.0   3.6 9.1   2.6
Napa Valley Basin 5/5/26 1545 68.3   10.9 65   25 55.9   1.6 4.0 SSW | 194 9.4   6.1 0.00 0.04 52.2   10.1 69.3   4.4 11.5   0.6
Lower Bohn 5/5/26 1545 65.6   10.0 69   22 55.3   2.2 6.2 SW | 234 9.9   5.8 0.00 0.06 50.2   9.4 70.8   3.9 9.9   1.0
Upper Bohn-North 5/5/26 1545 68.2   12.0 57   37 52.5   2.2 3.0 S | 170 7.2   4.5 0.00 0.05 51.1   5.8 69.5   3.8 9.0   1.0
Snell Peak Blk#9 5/5/26 1545 65.6   10.3 65   28 53.5   0.1 3.2 SSE | 168 7.4   1.5 0.00 0.04 50.6   4.1 68.0   3.5 8.8   0.7
Coyote Lake West 5/5/26 1545 67.5   11.2 63   27 54.5   1.0 3.9 S | 171 8.8   6.1 0.00 0.03 51.6   5.9 67.7   3.9 10.9   1.0
Coyote Lake Northeast 5/5/26 1545 67.5   10.8 66   22 55.9   2.7 - - - - - 51.7   5.5 69.1   4.4 -
Coyote Lake East 5/5/26 1545 67.9   10.1 67   23 56.4   1.6 - - - - - 52.4   8.4 69.4   4.4 -
Morgan Valley 5/5/26 1545 59.9   8.3 78   21 53.2   1.7 4.8 SSW | 196 8.2   2.1 0.00 0.01 47.3   0.0 60.4   2.9 22.8   8.9
Mine Pit North 5/5/26 1545 63.0   10.2 69   18 52.5   3.5 4.3 S | 185 9.3   5.6 - - 48.2   2.6 66.8   4.5 17.1   1.5
Mine Pit South 5/5/26 1545 62.2   10.4 69   21 51.7   2.9 4.7 SSE | 162 10.1   4.1 0.00 0.07 47.6   1.1 64.9   1.1 13.0   1.5
Cow Mountain 5/5/26 1545 56.6   10.9 - - 12.9 WSW | 254 20.8   4.4 0.00 0.04 41.1   0.1 58.0   7.3 29.8   12.0
Ukiah-SE (Ruddick) 5/5/26 1545 70.7   9.9 51   17 51.8   1.4 8.6 NW | 304 13.7   10.1 0.00 0.00 51.7   2.5 72.3   11.1 13.7   4.8
Max     71.5 78 56.4 12.9 - 20.8 0.00 0.07 52.4 73.1 29.8
Avg     67.2 61 53.2 5.1 - 10.6 0.00 - - - -
Min     56.6 47 49.9 2.0 - 6.1 0.00 0.00 41.1 58.0 8.8